Millbury, Massachusetts
Current Conditions -  °F | °C
As of 11:54 AM on Sunday 23 Nov 2014 (Local Time) from KORH Reporting Station
Clear Clear  
Wind Chill: 52°   Ceiling: Unl
Heat Index: 52°   Visibility: 10mi
Dew Point: 33°   Wind: 9mph
Humidity: 49%   Direction: 220°SW
Pressure: 30.12"   Gusts: NA
Location:  42.19°N, 71.76°W
Report Text: KORH 231654Z 22008KT 10SM CLR 11/01 A3012 RMK AO2 SLP205 T01110006 $
Loading
Personal Weather Stations






























Interactive Weather Map New forecast layout! Learn more

10-Day Weather Forecast

Advertisements
Track Severe Weather on mobile